sensor_id;sensor_type;location;lat;lon;timestamp;P1;durP1;ratioP1;P2;durP2;ratioP2
14945;SDS011;7567;50.916;6.900;2023-02-22T07:45:50;0.50;;;0.50;;
14945;SDS011;7567;50.916;6.900;2023-02-22T07:48:18;0.50;;;0.50;;
14945;SDS011;7567;50.916;6.900;2023-02-22T07:50:45;0.50;;;0.50;;
14945;SDS011;7567;50.916;6.900;2023-02-22T07:53:44;0.50;;;0.50;;
14945;SDS011;7567;50.916;6.900;2023-02-22T07:56:04;0.40;;;0.40;;
14945;SDS011;7567;50.916;6.900;2023-02-22T07:58:32;0.40;;;0.40;;
14945;SDS011;7567;50.916;6.900;2023-02-22T08:00:59;0.50;;;0.50;;
14945;SDS011;7567;50.916;6.900;2023-02-22T08:03:30;0.40;;;0.40;;
14945;SDS011;7567;50.916;6.900;2023-02-22T08:06:02;0.50;;;0.50;;
14945;SDS011;7567;50.916;6.900;2023-02-22T08:08:30;0.40;;;0.40;;
14945;SDS011;7567;50.916;6.900;2023-02-22T08:10:59;0.47;;;0.47;;
14945;SDS011;7567;50.916;6.900;2023-02-22T08:13:26;0.50;;;0.50;;
14945;SDS011;7567;50.916;6.900;2023-02-22T08:15:53;0.50;;;0.50;;
14945;SDS011;7567;50.916;6.900;2023-02-22T08:18:21;0.40;;;0.40;;
14945;SDS011;7567;50.916;6.900;2023-02-22T08:20:49;0.40;;;0.40;;
14945;SDS011;7567;50.916;6.900;2023-02-22T08:23:17;0.40;;;0.40;;
14945;SDS011;7567;50.916;6.900;2023-02-22T08:25:44;0.50;;;0.50;;
14945;SDS011;7567;50.916;6.900;2023-02-22T08:28:11;0.40;;;0.40;;
14945;SDS011;7567;50.916;6.900;2023-02-22T08:30:39;0.40;;;0.40;;
14945;SDS011;7567;50.916;6.900;2023-02-22T08:33:09;0.40;;;0.40;;
14945;SDS011;7567;50.916;6.900;2023-02-22T08:35:43;0.40;;;0.40;;
14945;SDS011;7567;50.916;6.900;2023-02-22T08:38:23;0.40;;;0.40;;
14945;SDS011;7567;50.916;6.900;2023-02-22T08:40:52;0.40;;;0.40;;
14945;SDS011;7567;50.916;6.900;2023-02-22T08:43:19;0.40;;;0.40;;
14945;SDS011;7567;50.916;6.900;2023-02-22T08:45:46;0.40;;;0.40;;
14945;SDS011;7567;50.916;6.900;2023-02-22T08:48:13;0.40;;;0.40;;
14945;SDS011;7567;50.916;6.900;2023-02-22T08:50:40;0.40;;;0.40;;
14945;SDS011;7567;50.916;6.900;2023-02-22T08:53:07;0.50;;;0.50;;
14945;SDS011;7567;50.916;6.900;2023-02-22T08:55:35;0.40;;;0.40;;
14945;SDS011;7567;50.916;6.900;2023-02-22T08:58:03;0.50;;;0.50;;
14945;SDS011;7567;50.916;6.900;2023-02-22T09:00:31;0.50;;;0.50;;
14945;SDS011;7567;50.916;6.900;2023-02-22T09:02:58;0.40;;;0.40;;
14945;SDS011;7567;50.916;6.900;2023-02-22T09:05:25;0.40;;;0.40;;
14945;SDS011;7567;50.916;6.900;2023-02-22T09:07:52;0.43;;;0.43;;
14945;SDS011;7567;50.916;6.900;2023-02-22T09:10:23;0.43;;;0.43;;
14945;SDS011;7567;50.916;6.900;2023-02-22T09:12:51;0.40;;;0.40;;
14945;SDS011;7567;50.916;6.900;2023-02-22T09:15:20;0.40;;;0.40;;
14945;SDS011;7567;50.916;6.900;2023-02-22T09:17:47;0.40;;;0.40;;
14945;SDS011;7567;50.916;6.900;2023-02-22T09:20:13;0.30;;;0.30;;
14945;SDS011;7567;50.916;6.900;2023-02-22T09:22:43;0.33;;;0.33;;
14945;SDS011;7567;50.916;6.900;2023-02-22T09:25:09;0.40;;;0.40;;
14945;SDS011;7567;50.916;6.900;2023-02-22T09:27:35;0.40;;;0.40;;
14945;SDS011;7567;50.916;6.900;2023-02-22T09:30:03;0.30;;;0.30;;
14945;SDS011;7567;50.916;6.900;2023-02-22T09:32:29;0.40;;;0.40;;
14945;SDS011;7567;50.916;6.900;2023-02-22T09:34:55;0.40;;;0.40;;
14945;SDS011;7567;50.916;6.900;2023-02-22T09:37:21;0.40;;;0.40;;
14945;SDS011;7567;50.916;6.900;2023-02-22T09:39:47;0.40;;;0.40;;
14945;SDS011;7567;50.916;6.900;2023-02-22T09:42:33;0.40;;;0.40;;
14945;SDS011;7567;50.916;6.900;2023-02-22T09:47:48;0.40;;;0.40;;
14945;SDS011;7567;50.916;6.900;2023-02-22T09:50:22;0.38;;;0.38;;
14945;SDS011;7567;50.916;6.900;2023-02-22T09:55:48;0.30;;;0.30;;
14945;SDS011;7567;50.916;6.900;2023-02-22T10:00:56;0.40;;;0.40;;
14945;SDS011;7567;50.916;6.900;2023-02-22T10:03:27;0.40;;;0.40;;
14945;SDS011;7567;50.916;6.900;2023-02-22T10:05:57;0.30;;;0.30;;
14945;SDS011;7567;50.916;6.900;2023-02-22T10:08:33;0.40;;;0.40;;
14945;SDS011;7567;50.916;6.900;2023-02-22T10:11:21;0.30;;;0.30;;
14945;SDS011;7567;50.916;6.900;2023-02-22T10:17:09;0.40;;;0.40;;
14945;SDS011;7567;50.916;6.900;2023-02-22T10:22:39;0.30;;;0.30;;
14945;SDS011;7567;50.916;6.900;2023-02-22T10:25:10;0.35;;;0.35;;
14945;SDS011;7567;50.916;6.900;2023-02-22T10:27:47;0.30;;;0.30;;
14945;SDS011;7567;50.916;6.900;2023-02-22T10:32:53;0.30;;;0.30;;
14945;SDS011;7567;50.916;6.900;2023-02-22T10:35:28;0.20;;;0.20;;
14945;SDS011;7567;50.916;6.900;2023-02-22T10:38:17;0.30;;;0.30;;
14945;SDS011;7567;50.916;6.900;2023-02-22T10:43:27;0.38;;;0.38;;
14945;SDS011;7567;50.916;6.900;2023-02-22T10:45:59;0.38;;;0.38;;
14945;SDS011;7567;50.916;6.900;2023-02-22T10:48:28;0.30;;;0.30;;
14945;SDS011;7567;50.916;6.900;2023-02-22T10:51:00;0.20;;;0.20;;
14945;SDS011;7567;50.916;6.900;2023-02-22T10:53:28;0.30;;;0.30;;
14945;SDS011;7567;50.916;6.900;2023-02-22T11:04:14;0.30;;;0.30;;
14945;SDS011;7567;50.916;6.900;2023-02-22T11:06:46;0.30;;;0.30;;
14945;SDS011;7567;50.916;6.900;2023-02-22T11:09:15;0.30;;;0.30;;
14945;SDS011;7567;50.916;6.900;2023-02-22T11:11:44;0.30;;;0.30;;
14945;SDS011;7567;50.916;6.900;2023-02-22T11:14:13;0.30;;;0.30;;
14945;SDS011;7567;50.916;6.900;2023-02-22T11:16:54;0.30;;;0.30;;
14945;SDS011;7567;50.916;6.900;2023-02-22T11:19:30;0.30;;;0.30;;
14945;SDS011;7567;50.916;6.900;2023-02-22T11:22:19;0.30;;;0.30;;
14945;SDS011;7567;50.916;6.900;2023-02-22T11:24:50;0.30;;;0.30;;
14945;SDS011;7567;50.916;6.900;2023-02-22T11:27:34;0.30;;;0.30;;
14945;SDS011;7567;50.916;6.900;2023-02-22T11:38:17;0.30;;;0.30;;
14945;SDS011;7567;50.916;6.900;2023-02-22T11:43:42;0.30;;;0.30;;
14945;SDS011;7567;50.916;6.900;2023-02-22T11:46:43;0.30;;;0.30;;
14945;SDS011;7567;50.916;6.900;2023-02-22T11:49:05;0.30;;;0.30;;
14945;SDS011;7567;50.916;6.900;2023-02-22T11:51:46;0.30;;;0.30;;
14945;SDS011;7567;50.916;6.900;2023-02-22T12:05:55;0.30;;;0.30;;
14945;SDS011;7567;50.916;6.900;2023-02-22T12:08:58;0.20;;;0.20;;
14945;SDS011;7567;50.916;6.900;2023-02-22T12:13:59;0.30;;;0.30;;
14945;SDS011;7567;50.916;6.900;2023-02-22T12:19:32;0.30;;;0.30;;
14945;SDS011;7567;50.916;6.900;2023-02-22T12:22:14;0.30;;;0.30;;
14945;SDS011;7567;50.916;6.900;2023-02-22T12:27:46;0.30;;;0.30;;
14945;SDS011;7567;50.916;6.900;2023-02-22T12:30:33;0.30;;;0.30;;
14945;SDS011;7567;50.916;6.900;2023-02-22T12:33:12;0.30;;;0.30;;
14945;SDS011;7567;50.916;6.900;2023-02-22T12:35:59;0.22;;;0.22;;
14945;SDS011;7567;50.916;6.900;2023-02-22T12:38:36;0.28;;;0.28;;
14945;SDS011;7567;50.916;6.900;2023-02-22T12:41:10;0.30;;;0.30;;
14945;SDS011;7567;50.916;6.900;2023-02-22T12:43:56;0.30;;;0.30;;
14945;SDS011;7567;50.916;6.900;2023-02-22T12:46:49;0.20;;;0.20;;
14945;SDS011;7567;50.916;6.900;2023-02-22T12:52:09;0.30;;;0.30;;
14945;SDS011;7567;50.916;6.900;2023-02-22T12:54:45;0.30;;;0.30;;
14945;SDS011;7567;50.916;6.900;2023-02-22T13:00:33;0.30;;;0.30;;
14945;SDS011;7567;50.916;6.900;2023-02-22T13:05:39;0.30;;;0.30;;
14945;SDS011;7567;50.916;6.900;2023-02-22T13:08:22;0.30;;;0.30;;
14945;SDS011;7567;50.916;6.900;2023-02-22T13:10:58;0.30;;;0.30;;
14945;SDS011;7567;50.916;6.900;2023-02-22T13:15:58;0.20;;;0.20;;
14945;SDS011;7567;50.916;6.900;2023-02-22T13:18:47;0.30;;;0.30;;
14945;SDS011;7567;50.916;6.900;2023-02-22T13:24:34;0.30;;;0.30;;
14945;SDS011;7567;50.916;6.900;2023-02-22T13:27:07;0.30;;;0.30;;
14945;SDS011;7567;50.916;6.900;2023-02-22T13:29:41;0.30;;;0.30;;
14945;SDS011;7567;50.916;6.900;2023-02-22T13:32:21;0.30;;;0.30;;
14945;SDS011;7567;50.916;6.900;2023-02-22T13:35:11;0.30;;;0.30;;
14945;SDS011;7567;50.916;6.900;2023-02-22T13:40:45;0.20;;;0.20;;
14945;SDS011;7567;50.916;6.900;2023-02-22T13:43:31;0.30;;;0.30;;
14945;SDS011;7567;50.916;6.900;2023-02-22T13:51:41;0.30;;;0.30;;
14945;SDS011;7567;50.916;6.900;2023-02-22T13:57:19;0.30;;;0.30;;
14945;SDS011;7567;50.916;6.900;2023-02-22T14:10:47;0.30;;;0.30;;
14945;SDS011;7567;50.916;6.900;2023-02-22T14:13:16;0.25;;;0.25;;
14945;SDS011;7567;50.916;6.900;2023-02-22T14:16:29;0.20;;;0.20;;
14945;SDS011;7567;50.916;6.900;2023-02-22T14:18:42;0.30;;;0.30;;
14945;SDS011;7567;50.916;6.900;2023-02-22T14:21:17;0.20;;;0.20;;
14945;SDS011;7567;50.916;6.900;2023-02-22T14:23:46;0.30;;;0.30;;
14945;SDS011;7567;50.916;6.900;2023-02-22T14:26:26;0.20;;;0.20;;
14945;SDS011;7567;50.916;6.900;2023-02-22T14:31:34;0.30;;;0.30;;
14945;SDS011;7567;50.916;6.900;2023-02-22T14:37:13;0.30;;;0.30;;
14945;SDS011;7567;50.916;6.900;2023-02-22T14:39:44;0.30;;;0.30;;
14945;SDS011;7567;50.916;6.900;2023-02-22T14:42:38;0.30;;;0.30;;
14945;SDS011;7567;50.916;6.900;2023-02-22T14:56:02;0.30;;;0.30;;
14945;SDS011;7567;50.916;6.900;2023-02-22T14:58:37;0.30;;;0.30;;
14945;SDS011;7567;50.916;6.900;2023-02-22T15:06:43;0.30;;;0.30;;
14945;SDS011;7567;50.916;6.900;2023-02-22T15:11:40;0.20;;;0.20;;
14945;SDS011;7567;50.916;6.900;2023-02-22T15:14:16;0.22;;;0.22;;
14945;SDS011;7567;50.916;6.900;2023-02-22T15:16:46;0.20;;;0.20;;
14945;SDS011;7567;50.916;6.900;2023-02-22T15:19:24;0.20;;;0.20;;
14945;SDS011;7567;50.916;6.900;2023-02-22T15:21:54;0.38;;;0.30;;
14945;SDS011;7567;50.916;6.900;2023-02-22T15:24:25;0.30;;;0.30;;
14945;SDS011;7567;50.916;6.900;2023-02-22T15:26:54;0.30;;;0.30;;
14945;SDS011;7567;50.916;6.900;2023-02-22T15:32:00;0.20;;;0.20;;
14945;SDS011;7567;50.916;6.900;2023-02-22T15:34:27;0.20;;;0.20;;
14945;SDS011;7567;50.916;6.900;2023-02-22T15:36:56;0.20;;;0.20;;
14945;SDS011;7567;50.916;6.900;2023-02-22T15:39:47;0.30;;;0.30;;
14945;SDS011;7567;50.916;6.900;2023-02-22T15:42:15;0.30;;;0.30;;
14945;SDS011;7567;50.916;6.900;2023-02-22T15:44:48;0.20;;;0.20;;
14945;SDS011;7567;50.916;6.900;2023-02-22T15:47:27;0.30;;;0.30;;
14945;SDS011;7567;50.916;6.900;2023-02-22T15:50:19;0.20;;;0.20;;
14945;SDS011;7567;50.916;6.900;2023-02-22T15:55:27;0.20;;;0.20;;
14945;SDS011;7567;50.916;6.900;2023-02-22T16:00:44;0.20;;;0.20;;
14945;SDS011;7567;50.916;6.900;2023-02-22T16:03:15;0.30;;;0.30;;
14945;SDS011;7567;50.916;6.900;2023-02-22T16:05:48;0.20;;;0.20;;
14945;SDS011;7567;50.916;6.900;2023-02-22T16:13:38;0.30;;;0.30;;
14945;SDS011;7567;50.916;6.900;2023-02-22T16:16:23;0.28;;;0.28;;
14945;SDS011;7567;50.916;6.900;2023-02-22T16:19:14;0.20;;;0.20;;
14945;SDS011;7567;50.916;6.900;2023-02-22T16:22:22;0.30;;;0.30;;
14945;SDS011;7567;50.916;6.900;2023-02-22T16:28:00;0.20;;;0.20;;
14945;SDS011;7567;50.916;6.900;2023-02-22T16:30:55;0.30;;;0.30;;
14945;SDS011;7567;50.916;6.900;2023-02-22T16:33:22;0.30;;;0.30;;
14945;SDS011;7567;50.916;6.900;2023-02-22T16:35:48;0.22;;;0.22;;
14945;SDS011;7567;50.916;6.900;2023-02-22T16:38:17;0.30;;;0.30;;
14945;SDS011;7567;50.916;6.900;2023-02-22T16:40:51;0.30;;;0.30;;
14945;SDS011;7567;50.916;6.900;2023-02-22T16:43:21;0.28;;;0.28;;
14945;SDS011;7567;50.916;6.900;2023-02-22T16:45:49;0.30;;;0.30;;
14945;SDS011;7567;50.916;6.900;2023-02-22T16:48:26;0.30;;;0.30;;
14945;SDS011;7567;50.916;6.900;2023-02-22T16:51:01;0.20;;;0.20;;
14945;SDS011;7567;50.916;6.900;2023-02-22T16:53:32;0.30;;;0.30;;
14945;SDS011;7567;50.916;6.900;2023-02-22T16:56:03;0.30;;;0.30;;
14945;SDS011;7567;50.916;6.900;2023-02-22T16:58:33;0.30;;;0.30;;
14945;SDS011;7567;50.916;6.900;2023-02-22T17:01:05;0.30;;;0.30;;
14945;SDS011;7567;50.916;6.900;2023-02-22T17:03:31;0.30;;;0.30;;
14945;SDS011;7567;50.916;6.900;2023-02-22T17:05:57;0.30;;;0.30;;
14945;SDS011;7567;50.916;6.900;2023-02-22T17:08:23;0.30;;;0.30;;
14945;SDS011;7567;50.916;6.900;2023-02-22T17:10:50;0.30;;;0.30;;
14945;SDS011;7567;50.916;6.900;2023-02-22T17:13:22;0.20;;;0.20;;
14945;SDS011;7567;50.916;6.900;2023-02-22T17:15:50;0.30;;;0.30;;
14945;SDS011;7567;50.916;6.900;2023-02-22T17:18:18;0.30;;;0.30;;
14945;SDS011;7567;50.916;6.900;2023-02-22T17:20:49;0.30;;;0.30;;
14945;SDS011;7567;50.916;6.900;2023-02-22T17:23:15;0.30;;;0.30;;
14945;SDS011;7567;50.916;6.900;2023-02-22T17:25:52;0.30;;;0.30;;
14945;SDS011;7567;50.916;6.900;2023-02-22T17:28:20;0.30;;;0.30;;
14945;SDS011;7567;50.916;6.900;2023-02-22T17:30:48;0.22;;;0.22;;
14945;SDS011;7567;50.916;6.900;2023-02-22T17:33:16;0.30;;;0.30;;
14945;SDS011;7567;50.916;6.900;2023-02-22T17:35:44;0.30;;;0.30;;
14945;SDS011;7567;50.916;6.900;2023-02-22T17:38:13;0.30;;;0.30;;
14945;SDS011;7567;50.916;6.900;2023-02-22T17:40:43;0.30;;;0.30;;
14945;SDS011;7567;50.916;6.900;2023-02-22T17:43:12;0.30;;;0.30;;
14945;SDS011;7567;50.916;6.900;2023-02-22T17:45:39;0.30;;;0.30;;
14945;SDS011;7567;50.916;6.900;2023-02-22T17:48:06;0.30;;;0.30;;
14945;SDS011;7567;50.916;6.900;2023-02-22T17:50:36;0.30;;;0.30;;
14945;SDS011;7567;50.916;6.900;2023-02-22T17:53:03;0.30;;;0.30;;
14945;SDS011;7567;50.916;6.900;2023-02-22T17:55:30;0.30;;;0.30;;
14945;SDS011;7567;50.916;6.900;2023-02-22T17:57:59;0.30;;;0.30;;
14945;SDS011;7567;50.916;6.900;2023-02-22T18:00:26;0.30;;;0.30;;
14945;SDS011;7567;50.916;6.900;2023-02-22T18:03:02;0.30;;;0.30;;
14945;SDS011;7567;50.916;6.900;2023-02-22T18:05:37;0.30;;;0.30;;
14945;SDS011;7567;50.916;6.900;2023-02-22T18:08:05;0.30;;;0.30;;
14945;SDS011;7567;50.916;6.900;2023-02-22T18:10:31;0.30;;;0.30;;
14945;SDS011;7567;50.916;6.900;2023-02-22T18:12:57;0.30;;;0.30;;
14945;SDS011;7567;50.916;6.900;2023-02-22T18:15:27;0.30;;;0.30;;
14945;SDS011;7567;50.916;6.900;2023-02-22T18:17:54;0.30;;;0.30;;
14945;SDS011;7567;50.916;6.900;2023-02-22T18:20:20;0.35;;;0.35;;
14945;SDS011;7567;50.916;6.900;2023-02-22T18:23:02;0.30;;;0.30;;
14945;SDS011;7567;50.916;6.900;2023-02-22T18:25:32;0.30;;;0.30;;
14945;SDS011;7567;50.916;6.900;2023-02-22T18:28:00;0.30;;;0.30;;
14945;SDS011;7567;50.916;6.900;2023-02-22T18:30:30;0.30;;;0.30;;
14945;SDS011;7567;50.916;6.900;2023-02-22T18:33:01;0.30;;;0.30;;
14945;SDS011;7567;50.916;6.900;2023-02-22T18:35:28;0.30;;;0.30;;
14945;SDS011;7567;50.916;6.900;2023-02-22T18:37:54;0.30;;;0.30;;
14945;SDS011;7567;50.916;6.900;2023-02-22T18:40:20;0.30;;;0.30;;
14945;SDS011;7567;50.916;6.900;2023-02-22T18:42:48;0.30;;;0.30;;
14945;SDS011;7567;50.916;6.900;2023-02-22T18:45:14;0.30;;;0.30;;
14945;SDS011;7567;50.916;6.900;2023-02-22T18:47:42;0.20;;;0.20;;
14945;SDS011;7567;50.916;6.900;2023-02-22T18:50:09;0.30;;;0.30;;
14945;SDS011;7567;50.916;6.900;2023-02-22T18:52:37;0.30;;;0.30;;
14945;SDS011;7567;50.916;6.900;2023-02-22T18:55:10;0.20;;;0.20;;
14945;SDS011;7567;50.916;6.900;2023-02-22T18:57:40;0.30;;;0.30;;
14945;SDS011;7567;50.916;6.900;2023-02-22T19:00:07;0.30;;;0.30;;
14945;SDS011;7567;50.916;6.900;2023-02-22T19:02:38;0.30;;;0.30;;
14945;SDS011;7567;50.916;6.900;2023-02-22T19:05:08;0.30;;;0.30;;
14945;SDS011;7567;50.916;6.900;2023-02-22T19:07:35;0.30;;;0.30;;
14945;SDS011;7567;50.916;6.900;2023-02-22T19:10:01;0.30;;;0.30;;
14945;SDS011;7567;50.916;6.900;2023-02-22T19:12:28;0.30;;;0.30;;
14945;SDS011;7567;50.916;6.900;2023-02-22T19:14:56;0.30;;;0.30;;
14945;SDS011;7567;50.916;6.900;2023-02-22T19:17:23;0.30;;;0.30;;
14945;SDS011;7567;50.916;6.900;2023-02-22T19:19:51;0.30;;;0.30;;
14945;SDS011;7567;50.916;6.900;2023-02-22T19:22:17;0.30;;;0.30;;
14945;SDS011;7567;50.916;6.900;2023-02-22T19:24:43;0.30;;;0.30;;
14945;SDS011;7567;50.916;6.900;2023-02-22T19:27:10;0.30;;;0.30;;
14945;SDS011;7567;50.916;6.900;2023-02-22T19:29:37;0.30;;;0.30;;
14945;SDS011;7567;50.916;6.900;2023-02-22T19:32:07;0.30;;;0.30;;
14945;SDS011;7567;50.916;6.900;2023-02-22T19:34:35;0.35;;;0.35;;
14945;SDS011;7567;50.916;6.900;2023-02-22T19:37:02;0.30;;;0.30;;
14945;SDS011;7567;50.916;6.900;2023-02-22T19:39:30;0.30;;;0.30;;
14945;SDS011;7567;50.916;6.900;2023-02-22T19:41:57;0.30;;;0.30;;
14945;SDS011;7567;50.916;6.900;2023-02-22T19:44:24;0.30;;;0.30;;
14945;SDS011;7567;50.916;6.900;2023-02-22T19:46:51;0.20;;;0.20;;
14945;SDS011;7567;50.916;6.900;2023-02-22T19:49:20;0.30;;;0.30;;
14945;SDS011;7567;50.916;6.900;2023-02-22T19:51:49;0.30;;;0.30;;
14945;SDS011;7567;50.916;6.900;2023-02-22T19:54:18;0.30;;;0.30;;
14945;SDS011;7567;50.916;6.900;2023-02-22T19:56:45;0.30;;;0.30;;
14945;SDS011;7567;50.916;6.900;2023-02-22T19:59:16;0.30;;;0.30;;
14945;SDS011;7567;50.916;6.900;2023-02-22T20:01:47;0.30;;;0.30;;
14945;SDS011;7567;50.916;6.900;2023-02-22T20:04:14;0.30;;;0.30;;
14945;SDS011;7567;50.916;6.900;2023-02-22T20:06:43;0.30;;;0.30;;
14945;SDS011;7567;50.916;6.900;2023-02-22T20:09:12;0.22;;;0.22;;
14945;SDS011;7567;50.916;6.900;2023-02-22T20:11:47;0.32;;;0.32;;
14945;SDS011;7567;50.916;6.900;2023-02-22T20:14:19;0.35;;;0.35;;
14945;SDS011;7567;50.916;6.900;2023-02-22T20:16:48;0.30;;;0.30;;
14945;SDS011;7567;50.916;6.900;2023-02-22T20:19:15;0.30;;;0.30;;
14945;SDS011;7567;50.916;6.900;2023-02-22T20:21:41;0.28;;;0.28;;
14945;SDS011;7567;50.916;6.900;2023-02-22T20:24:08;0.30;;;0.30;;
14945;SDS011;7567;50.916;6.900;2023-02-22T20:26:36;0.30;;;0.30;;
14945;SDS011;7567;50.916;6.900;2023-02-22T20:29:04;0.28;;;0.28;;
14945;SDS011;7567;50.916;6.900;2023-02-22T20:31:34;0.30;;;0.30;;
14945;SDS011;7567;50.916;6.900;2023-02-22T20:34:00;0.30;;;0.30;;
14945;SDS011;7567;50.916;6.900;2023-02-22T20:36:27;0.30;;;0.30;;
14945;SDS011;7567;50.916;6.900;2023-02-22T20:38:55;0.30;;;0.30;;
14945;SDS011;7567;50.916;6.900;2023-02-22T20:41:29;0.30;;;0.30;;
14945;SDS011;7567;50.916;6.900;2023-02-22T20:43:57;0.30;;;0.30;;
14945;SDS011;7567;50.916;6.900;2023-02-22T20:46:24;0.30;;;0.30;;
14945;SDS011;7567;50.916;6.900;2023-02-22T20:48:55;0.30;;;0.30;;
14945;SDS011;7567;50.916;6.900;2023-02-22T20:51:22;0.30;;;0.30;;
14945;SDS011;7567;50.916;6.900;2023-02-22T20:53:49;0.30;;;0.30;;
14945;SDS011;7567;50.916;6.900;2023-02-22T20:56:19;0.30;;;0.30;;
14945;SDS011;7567;50.916;6.900;2023-02-22T20:58:47;0.30;;;0.30;;
14945;SDS011;7567;50.916;6.900;2023-02-22T21:01:14;0.30;;;0.30;;
14945;SDS011;7567;50.916;6.900;2023-02-22T21:03:41;0.30;;;0.30;;
14945;SDS011;7567;50.916;6.900;2023-02-22T21:06:09;0.30;;;0.30;;
14945;SDS011;7567;50.916;6.900;2023-02-22T21:08:39;0.30;;;0.30;;
14945;SDS011;7567;50.916;6.900;2023-02-22T21:11:11;0.30;;;0.30;;
14945;SDS011;7567;50.916;6.900;2023-02-22T21:13:39;0.20;;;0.20;;
14945;SDS011;7567;50.916;6.900;2023-02-22T21:16:06;0.30;;;0.30;;
14945;SDS011;7567;50.916;6.900;2023-02-22T21:18:35;0.30;;;0.30;;
14945;SDS011;7567;50.916;6.900;2023-02-22T21:21:02;0.30;;;0.30;;
14945;SDS011;7567;50.916;6.900;2023-02-22T21:23:36;0.40;;;0.40;;
14945;SDS011;7567;50.916;6.900;2023-02-22T21:26:08;0.30;;;0.30;;
14945;SDS011;7567;50.916;6.900;2023-02-22T21:28:38;0.30;;;0.30;;
14945;SDS011;7567;50.916;6.900;2023-02-22T21:31:07;0.30;;;0.30;;
14945;SDS011;7567;50.916;6.900;2023-02-22T21:33:36;0.30;;;0.30;;
14945;SDS011;7567;50.916;6.900;2023-02-22T21:36:06;0.30;;;0.30;;
14945;SDS011;7567;50.916;6.900;2023-02-22T21:38:41;0.30;;;0.30;;
14945;SDS011;7567;50.916;6.900;2023-02-22T21:41:09;0.30;;;0.30;;
14945;SDS011;7567;50.916;6.900;2023-02-22T21:43:39;0.30;;;0.30;;
14945;SDS011;7567;50.916;6.900;2023-02-22T21:46:06;0.30;;;0.30;;
14945;SDS011;7567;50.916;6.900;2023-02-22T21:48:37;0.30;;;0.30;;
14945;SDS011;7567;50.916;6.900;2023-02-22T21:51:13;0.30;;;0.30;;
14945;SDS011;7567;50.916;6.900;2023-02-22T21:53:48;0.30;;;0.30;;
14945;SDS011;7567;50.916;6.900;2023-02-22T21:56:17;0.30;;;0.30;;
14945;SDS011;7567;50.916;6.900;2023-02-22T21:58:45;0.30;;;0.30;;
14945;SDS011;7567;50.916;6.900;2023-02-22T22:01:14;0.30;;;0.30;;
14945;SDS011;7567;50.916;6.900;2023-02-22T22:03:43;0.40;;;0.40;;
14945;SDS011;7567;50.916;6.900;2023-02-22T22:06:11;0.30;;;0.30;;
14945;SDS011;7567;50.916;6.900;2023-02-22T22:08:38;0.30;;;0.30;;
14945;SDS011;7567;50.916;6.900;2023-02-22T22:11:09;0.30;;;0.30;;
14945;SDS011;7567;50.916;6.900;2023-02-22T22:13:37;0.35;;;0.35;;
14945;SDS011;7567;50.916;6.900;2023-02-22T22:16:09;0.30;;;0.30;;
14945;SDS011;7567;50.916;6.900;2023-02-22T22:18:39;0.30;;;0.30;;
14945;SDS011;7567;50.916;6.900;2023-02-22T22:23:41;0.32;;;0.32;;
14945;SDS011;7567;50.916;6.900;2023-02-22T22:26:12;0.30;;;0.30;;
14945;SDS011;7567;50.916;6.900;2023-02-22T22:28:41;0.30;;;0.30;;
14945;SDS011;7567;50.916;6.900;2023-02-22T22:31:09;0.30;;;0.30;;
14945;SDS011;7567;50.916;6.900;2023-02-22T22:33:36;0.20;;;0.20;;
14945;SDS011;7567;50.916;6.900;2023-02-22T22:36:04;0.30;;;0.30;;
14945;SDS011;7567;50.916;6.900;2023-02-22T22:38:31;0.30;;;0.30;;
14945;SDS011;7567;50.916;6.900;2023-02-22T22:40:58;0.30;;;0.30;;
14945;SDS011;7567;50.916;6.900;2023-02-22T22:43:28;0.30;;;0.30;;
14945;SDS011;7567;50.916;6.900;2023-02-22T22:45:58;0.30;;;0.30;;
14945;SDS011;7567;50.916;6.900;2023-02-22T22:48:25;0.30;;;0.30;;
14945;SDS011;7567;50.916;6.900;2023-02-22T22:50:57;0.30;;;0.30;;
14945;SDS011;7567;50.916;6.900;2023-02-22T22:53:30;0.30;;;0.30;;
14945;SDS011;7567;50.916;6.900;2023-02-22T22:56:01;0.40;;;0.40;;
14945;SDS011;7567;50.916;6.900;2023-02-22T22:58:29;0.38;;;0.38;;
14945;SDS011;7567;50.916;6.900;2023-02-22T23:00:59;0.30;;;0.30;;
14945;SDS011;7567;50.916;6.900;2023-02-22T23:03:30;0.30;;;0.30;;
14945;SDS011;7567;50.916;6.900;2023-02-22T23:06:01;0.22;;;0.22;;
14945;SDS011;7567;50.916;6.900;2023-02-22T23:08:29;0.30;;;0.30;;
14945;SDS011;7567;50.916;6.900;2023-02-22T23:11:07;0.30;;;0.30;;
14945;SDS011;7567;50.916;6.900;2023-02-22T23:13:37;0.30;;;0.30;;
14945;SDS011;7567;50.916;6.900;2023-02-22T23:16:07;0.30;;;0.30;;
14945;SDS011;7567;50.916;6.900;2023-02-22T23:18:39;0.40;;;0.40;;
14945;SDS011;7567;50.916;6.900;2023-02-22T23:21:08;0.30;;;0.30;;
14945;SDS011;7567;50.916;6.900;2023-02-22T23:23:34;0.40;;;0.40;;
14945;SDS011;7567;50.916;6.900;2023-02-22T23:26:04;0.40;;;0.40;;
14945;SDS011;7567;50.916;6.900;2023-02-22T23:28:42;0.40;;;0.40;;
14945;SDS011;7567;50.916;6.900;2023-02-22T23:31:11;0.30;;;0.30;;
14945;SDS011;7567;50.916;6.900;2023-02-22T23:33:39;0.30;;;0.30;;
14945;SDS011;7567;50.916;6.900;2023-02-22T23:36:06;0.30;;;0.30;;
14945;SDS011;7567;50.916;6.900;2023-02-22T23:38:35;0.30;;;0.30;;
14945;SDS011;7567;50.916;6.900;2023-02-22T23:41:01;0.30;;;0.30;;
14945;SDS011;7567;50.916;6.900;2023-02-22T23:43:29;0.30;;;0.30;;
14945;SDS011;7567;50.916;6.900;2023-02-22T23:46:16;0.30;;;0.30;;
14945;SDS011;7567;50.916;6.900;2023-02-22T23:48:44;0.30;;;0.30;;
14945;SDS011;7567;50.916;6.900;2023-02-22T23:51:18;0.30;;;0.30;;
14945;SDS011;7567;50.916;6.900;2023-02-22T23:53:51;0.30;;;0.30;;
14945;SDS011;7567;50.916;6.900;2023-02-22T23:56:20;0.30;;;0.30;;
14945;SDS011;7567;50.916;6.900;2023-02-22T23:58:48;0.30;;;0.30;;
